Time;durP1;ratioP1;P1;durP2;ratioP2;P2;SDS_P1;SDS_P2;PMS_P1;PMS_P2;Temp;Humidity;BMP_temperature;BMP_pressure;BME280_temperature;BME280_humidity;BME280_pressure;Samples;Min_cycle;Max_cycle;Signal;HPM_P1;HPM_P2
2022/10/19 00:03:07;;;;;;;21.27;15.33;;;11.60;99.90;;;;;;10099235;29;20255;-93
2022/10/19 00:08:10;;;;;;;27.63;13.77;;;11.40;99.90;;;;;;10114920;29;20267;-93
2022/10/19 00:13:12;;;;;;;20.30;13.17;;;11.40;99.90;;;;;;10114403;29;20274;-93
2022/10/19 00:18:14;;;;;;;21.80;13.47;;;11.20;99.90;;;;;;10110091;29;20235;-94
2022/10/19 00:23:17;;;;;;;21.20;14.17;;;11.00;99.90;;;;;;10111805;29;20212;-93
2022/10/19 00:28:19;;;;;;;20.30;13.90;;;11.30;99.90;;;;;;10112973;29;20262;-93
2022/10/19 00:33:22;;;;;;;21.23;13.37;;;11.80;99.90;;;;;;10114003;29;20228;-93
2022/10/19 00:38:25;;;;;;;21.70;12.70;;;11.80;99.90;;;;;;10113928;29;20213;-93
2022/10/19 00:43:30;;;;;;;17.27;11.27;;;;;;;;;;10113384;29;20320;-93
2022/10/19 00:48:32;;;;;;;20.47;12.23;;;12.50;99.90;;;;;;10113635;29;20256;-93
2022/10/19 00:53:35;;;;;;;20.17;12.70;;;11.80;99.90;;;;;;10129889;29;20843;-93
2022/10/19 00:58:41;;;;;;;17.37;12.03;;;12.40;99.90;;;;;;10129201;29;20319;-93
2022/10/19 01:03:44;;;;;;;21.60;11.70;;;10.90;99.90;;;;;;10113654;29;20685;-93
2022/10/19 01:08:47;;;;;;;22.53;11.23;;;10.50;99.90;;;;;;10113367;29;20304;-94
2022/10/19 01:14:33;;;;;;;19.57;11.33;;;10.80;99.90;;;;;;10097148;29;20678;-94
2022/10/19 01:19:42;;;;;;;20.03;11.13;;;10.40;99.90;;;;;;9929515;29;20254;-94
2022/10/19 01:25:09;;;;;;;20.63;11.43;;;10.50;99.90;;;;;;9927130;29;20254;-93
2022/10/19 01:30:32;;;;;;;21.07;12.17;;;10.70;99.90;;;;;;9936886;29;20793;-94
2022/10/19 01:36:00;;;;;;;21.80;11.73;;;10.80;99.90;;;;;;9912222;29;20297;-94
2022/10/19 01:41:14;;;;;;;20.23;13.20;;;10.80;99.90;;;;;;9921162;29;20252;-94
2022/10/19 01:46:20;;;;;;;17.53;10.83;;;12.10;99.90;;;;;;9925737;29;20235;-93
2022/10/19 01:51:27;;;;;;;19.47;11.57;;;11.80;99.90;;;;;;10112036;29;20271;-93
2022/10/19 01:56:32;;;;;;;19.50;12.67;;;12.10;99.90;;;;;;10111366;29;20216;-94
2022/10/19 02:01:40;;;;;;;17.70;9.93;;;12.90;99.90;;;;;;10136063;29;20263;-93
2022/10/19 02:06:43;;;;;;;17.10;11.00;;;11.30;99.90;;;;;;10119371;29;20212;-92
2022/10/19 02:11:50;;;;;;;14.33;9.83;;;11.20;99.90;;;;;;10118133;29;20261;-93
2022/10/19 02:17:20;;;;;;;18.13;9.33;;;12.00;99.90;;;;;;10093851;29;20251;-94
2022/10/19 02:22:23;;;;;;;11.73;8.27;;;11.20;99.90;;;;;;10080206;29;20585;-93
2022/10/19 02:27:26;;;;;;;16.87;7.73;;;11.70;99.90;;;;;;10094769;29;20304;-93
2022/10/19 02:32:29;;;;;;;13.27;9.07;;;11.80;99.90;;;;;;10102080;29;20752;-94
2022/10/19 02:37:32;;;;;;;14.63;8.10;;;11.70;99.90;;;;;;10118627;29;20236;-94
2022/10/19 02:42:44;;;;;;;19.37;12.63;;;11.60;99.90;;;;;;10117682;29;20338;-93
2022/10/19 02:47:49;;;;;;;12.57;9.33;;;;;;;;;;10133686;29;20292;-93
2022/10/19 02:52:51;;;;;;;11.57;8.40;;;12.90;99.90;;;;;;10117544;29;20744;-94
2022/10/19 02:57:53;;;;;;;18.33;10.00;;;12.50;99.90;;;;;;10115433;29;20267;-93
2022/10/19 03:02:56;;;;;;;10.47;7.33;;;12.30;99.90;;;;;;10116992;29;20634;-95
2022/10/19 03:07:58;;;;;;;11.33;7.53;;;11.70;99.90;;;;;;10117155;29;20720;-94
2022/10/19 03:13:01;;;;;;;11.17;6.37;;;13.60;99.90;;;;;;10115525;29;20291;-94
2022/10/19 03:18:03;;;;;;;10.70;7.70;;;11.40;99.90;;;;;;10116457;29;20209;-94
2022/10/19 03:23:06;;;;;;;20.67;9.33;;;12.30;99.90;;;;;;10116504;29;20271;-93
2022/10/19 03:28:08;;;;;;;12.87;6.63;;;11.90;99.90;;;;;;10115739;29;20304;-94
2022/10/19 03:33:10;;;;;;;9.93;6.50;;;12.20;99.90;;;;;;10101338;29;20319;-93
2022/10/19 03:38:13;;;;;;;10.27;6.07;;;13.30;99.90;;;;;;10101042;29;20251;-93
2022/10/19 03:43:16;;;;;;;17.13;6.53;;;12.60;99.90;;;;;;10099407;29;20761;-94
2022/10/19 03:48:18;;;;;;;11.63;6.77;;;12.00;99.90;;;;;;10115067;29;20208;-93
2022/10/19 03:53:21;;;;;;;12.23;5.50;;;12.70;99.90;;;;;;10100169;29;20284;-93
2022/10/19 03:58:23;;;;;;;15.33;7.13;;;11.20;99.90;;;;;;10114620;29;20255;-95
2022/10/19 04:03:26;;;;;;;9.63;7.70;;;11.90;99.90;;;;;;10115481;29;20683;-94
2022/10/19 04:08:28;;;;;;;6.53;4.47;;;13.20;99.90;;;;;;10098868;29;20243;-93
2022/10/19 04:13:33;;;;;;;7.60;5.00;;;11.50;99.90;;;;;;10098157;29;20204;-94
2022/10/19 04:18:36;;;;;;;10.20;4.97;;;12.10;99.90;;;;;;10114546;29;20690;-94
2022/10/19 04:23:38;;;;;;;8.63;5.53;;;10.90;99.90;;;;;;10114280;29;20735;-95
2022/10/19 04:28:41;;;;;;;9.93;5.60;;;10.90;99.90;;;;;;10102192;29;20284;-95
2022/10/19 04:33:44;;;;;;;9.47;5.50;;;11.20;99.90;;;;;;10105163;29;20206;-93
2022/10/19 04:38:47;;;;;;;11.17;5.87;;;11.20;99.90;;;;;;10112952;29;20258;-94
2022/10/19 04:43:55;;;;;;;11.63;5.93;;;10.70;99.90;;;;;;10111408;29;20236;-93
2022/10/19 04:48:58;;;;;;;18.03;5.13;;;11.40;99.90;;;;;;10097891;29;20250;-94
2022/10/19 04:54:02;;;;;;;10.93;5.07;;;11.40;99.90;;;;;;10097127;29;20238;-95
2022/10/19 04:59:05;;;;;;;5.03;3.77;;;12.40;99.90;;;;;;10111766;29;20322;-94
2022/10/19 05:04:09;;;;;;;7.03;3.60;;;12.00;99.90;;;;;;10105480;29;20201;-93
2022/10/19 05:09:12;;;;;;;9.23;5.13;;;11.50;99.90;;;;;;10096258;29;20268;-94
2022/10/19 05:14:14;;;;;;;7.83;3.40;;;11.80;99.90;;;;;;10097727;29;20218;-95
2022/10/19 05:19:17;;;;;;;6.27;4.00;;;11.40;99.90;;;;;;10112570;29;20234;-94
2022/10/19 05:24:20;;;;;;;7.43;3.10;;;11.00;99.90;;;;;;10098984;29;20241;-94
2022/10/19 05:29:23;;;;;;;7.90;3.83;;;11.20;99.90;;;;;;10098320;29;20734;-93
2022/10/19 05:34:25;;;;;;;11.00;6.67;;;11.10;99.90;;;;;;10110682;29;20365;-93
2022/10/19 05:39:28;;;;;;;8.27;5.23;;;11.90;99.90;;;;;;10129650;29;20233;-93
2022/10/19 05:44:30;;;;;;;9.60;6.03;;;11.20;99.90;;;;;;10110601;29;20281;-91
2022/10/19 05:49:33;;;;;;;8.27;3.50;;;12.10;99.90;;;;;;10100673;29;20267;-96
2022/10/19 05:54:39;;;;;;;6.00;2.70;;;13.00;99.90;;;;;;10117244;29;20234;-96
2022/10/19 05:59:43;;;;;;;11.03;3.50;;;12.20;99.90;;;;;;10134049;29;20209;-96
2022/10/19 06:05:23;;;;;;;8.93;3.27;;;13.90;99.90;;;;;;10127183;29;20185;-96
2022/10/19 06:10:27;;;;;;;6.70;2.83;;;14.00;99.90;;;;;;10116019;29;20295;-93
2022/10/19 06:15:32;;;;;;;5.53;2.27;;;11.90;99.90;;;;;;10095812;29;20238;-93
2022/10/19 06:20:37;;;;;;;6.20;2.70;;;12.70;99.90;;;;;;10104709;29;20297;-93
2022/10/19 06:25:39;;;;;;;6.20;2.97;;;11.00;99.90;;;;;;10101837;29;20279;-92
2022/10/19 06:30:42;;;;;;;7.97;3.37;;;10.90;99.90;;;;;;10131971;29;20247;-94
2022/10/19 06:35:45;;;;;;;10.23;3.10;;;11.70;99.90;;;;;;10113546;29;20763;-93
2022/10/19 06:40:50;;;;;;;10.73;4.27;;;13.10;99.90;;;;;;10109683;29;20242;-94
2022/10/19 06:45:53;;;;;;;12.50;5.80;;;11.50;99.90;;;;;;10113773;29;20244;-94
2022/10/19 06:50:57;;;;;;;11.90;3.50;;;13.10;99.90;;;;;;10114085;29;20732;-93
2022/10/19 06:56:01;;;;;;;8.90;3.80;;;13.30;99.90;;;;;;10115011;29;20228;-94
2022/10/19 07:01:06;;;;;;;7.40;3.53;;;13.30;99.90;;;;;;10115173;29;20616;-94
2022/10/19 07:06:11;;;;;;;5.50;2.67;;;13.40;99.90;;;;;;10116307;29;20707;-92
2022/10/19 07:11:18;;;;;;;5.93;3.70;;;12.80;99.90;;;;;;10111760;29;20258;-93
2022/10/19 07:16:21;;;;;;;6.20;4.13;;;12.00;99.90;;;;;;10113727;29;20690;-93
2022/10/19 07:21:24;;;;;;;6.17;4.83;;;14.40;99.90;;;;;;10115190;29;20236;-93
2022/10/19 07:26:29;;;;;;;6.80;2.20;;;15.00;99.90;;;;;;10098138;29;20220;-94
2022/10/19 07:31:31;;;;;;;6.67;2.63;;;12.20;99.90;;;;;;10113365;29;20311;-93
2022/10/19 07:36:35;;;;;;;3.30;1.93;;;12.40;99.90;;;;;;10129445;29;20228;-92
2022/10/19 07:41:38;;;;;;;8.23;3.80;;;12.70;99.90;;;;;;10096282;29;20247;-93
2022/10/19 07:46:41;;;;;;;6.10;2.47;;;13.80;99.90;;;;;;10122786;29;20310;-93
2022/10/19 07:51:45;;;;;;;5.70;2.00;;;14.60;99.90;;;;;;10129300;29;20271;-94
2022/10/19 07:56:47;;;;;;;8.03;4.33;;;13.50;99.90;;;;;;10111991;29;20234;-93
2022/10/19 08:01:51;;;;;;;4.37;2.90;;;13.90;99.90;;;;;;10111466;29;20714;-93
2022/10/19 08:06:54;;;;;;;4.73;2.63;;;13.70;99.90;;;;;;10111574;29;20235;-92
2022/10/19 08:11:57;;;;;;;8.40;3.60;;;14.20;99.90;;;;;;10094552;29;20259;-93
2022/10/19 08:17:00;;;;;;;6.30;4.43;;;14.10;99.90;;;;;;10105081;29;20232;-93
2022/10/19 08:22:02;;;;;;;8.00;3.00;;;15.00;99.90;;;;;;10109081;29;20313;-95
2022/10/19 08:27:05;;;;;;;4.77;2.37;;;12.20;99.90;;;;;;10094307;29;20294;-92
2022/10/19 08:32:08;;;;;;;5.57;2.87;;;;;;;;;;10110419;29;20273;-94
2022/10/19 08:37:10;;;;;;;6.40;2.90;;;11.60;99.90;;;;;;10093045;29;20269;-93
2022/10/19 08:42:48;;;;;;;2.47;1.93;;;;;;;;;;10110264;29;20307;-94
2022/10/19 08:48:20;;;;;;;5.83;2.77;;;11.80;99.90;;;;;;10109031;29;20751;-93
2022/10/19 08:53:30;;;;;;;4.03;2.67;;;;;;;;;;10095107;29;20793;-95
2022/10/19 08:58:35;;;;;;;5.57;2.13;;;11.60;99.90;;;;;;10095787;29;20243;-93
2022/10/19 09:03:49;;;;;;;2.50;1.50;;;12.50;99.90;;;;;;10111635;29;20243;-95
2022/10/19 09:08:59;;;;;;;2.20;2.00;;;11.70;99.90;;;;;;10110252;29;20642;-93
2022/10/19 09:14:45;;;;;;;4.60;2.60;;;13.10;99.90;;;;;;10105420;29;20316;-93
2022/10/19 09:19:48;;;;;;;6.77;3.83;;;13.20;99.90;;;;;;10082838;29;20243;-95
2022/10/19 09:24:54;;;;;;;4.50;2.03;;;14.00;99.90;;;;;;10111497;29;20216;-94
2022/10/19 09:29:57;;;;;;;1.80;1.60;;;;;;;;;;10090299;29;20240;-95
2022/10/19 09:35:04;;;;;;;3.00;2.53;;;13.10;99.90;;;;;;10109055;29;20244;-94
2022/10/19 09:40:16;;;;;;;1.53;0.90;;;13.20;99.90;;;;;;10116452;29;20236;-95
2022/10/19 09:45:34;;;;;;;2.07;1.17;;;13.20;99.90;;;;;;10133391;29;20239;-93
2022/10/19 09:50:42;;;;;;;1.67;1.20;;;12.30;99.90;;;;;;10115958;29;20256;-94
2022/10/19 09:55:50;;;;;;;1.13;0.90;;;12.60;99.90;;;;;;10121811;29;20202;-95
2022/10/19 10:00:54;;;;;;;3.17;2.80;;;12.70;99.90;;;;;;10109108;29;20275;-93
2022/10/19 10:06:13;;;;;;;2.73;1.10;;;13.00;99.90;;;;;;10115823;29;20311;-94
2022/10/19 10:11:22;;;;;;;1.30;1.07;;;12.70;99.90;;;;;;10098332;29;20248;-94
2022/10/19 10:16:29;;;;;;;3.67;1.23;;;12.50;99.90;;;;;;10130219;29;20853;-94
2022/10/19 10:21:44;;;;;;;1.30;1.17;;;11.70;99.90;;;;;;10116262;29;20265;-94
2022/10/19 10:26:52;;;;;;;5.30;1.53;;;12.40;99.90;;;;;;10134621;29;20260;-93
2022/10/19 10:32:31;;;;;;;3.63;1.50;;;11.00;99.90;;;;;;10101288;29;20259;-93
2022/10/19 10:37:40;;;;;;;2.47;1.13;;;;;;;;;;9997358;29;20281;-93
2022/10/19 10:42:45;;;;;;;1.80;0.90;;;10.80;99.90;;;;;;10011913;29;20290;-94
2022/10/19 10:47:47;;;;;;;1.90;0.97;;;11.00;99.90;;;;;;10003171;29;20273;-93
2022/10/19 10:53:02;;;;;;;1.00;0.70;;;11.00;99.90;;;;;;10029604;29;20265;-94
2022/10/19 10:58:25;;;;;;;2.47;0.77;;;11.00;99.90;;;;;;10025050;29;20312;-93
2022/10/19 11:03:33;;;;;;;1.47;0.60;;;10.90;99.90;;;;;;10018413;29;20265;-93
2022/10/19 11:09:10;;;;;;;2.87;1.20;;;11.60;99.90;;;;;;10025624;29;20240;-93
2022/10/19 11:14:45;;;;;;;1.50;0.90;;;11.60;99.90;;;;;;10113513;29;20288;-93
2022/10/19 11:19:50;;;;;;;1.70;1.00;;;13.00;99.90;;;;;;10100033;29;20240;-93
2022/10/19 11:25:20;;;;;;;3.37;0.70;;;11.90;99.90;;;;;;10130842;29;20673;-93
2022/10/19 11:30:24;;;;;;;1.00;0.90;;;11.40;99.90;;;;;;10111172;29;20303;-94
2022/10/19 11:35:46;;;;;;;0.67;0.57;;;11.60;99.90;;;;;;10114863;29;20247;-94
2022/10/19 11:40:56;;;;;;;3.80;0.80;;;11.70;99.90;;;;;;10066553;29;20241;-93
2022/10/19 11:46:28;;;;;;;2.30;0.57;;;11.90;99.90;;;;;;10069935;29;20249;-94
2022/10/19 11:51:56;;;;;;;3.07;0.87;;;11.80;99.90;;;;;;10070971;29;20272;-95
2022/10/19 11:57:06;;;;;;;0.80;0.60;;;12.40;99.90;;;;;;10087004;29;20951;-94
2022/10/19 12:02:54;;;;;;;1.27;0.60;;;12.90;99.90;;;;;;10073778;29;20645;-93
2022/10/19 12:08:26;;;;;;;0.37;0.33;;;12.80;99.90;;;;;;10073555;29;20317;-94
2022/10/19 12:13:40;;;;;;;3.03;0.80;;;12.30;99.90;;;;;;10058816;29;20267;-93
2022/10/19 12:18:54;;;;;;;0.77;0.40;;;12.70;99.90;;;;;;10088017;29;20233;-94
2022/10/19 12:23:59;;;;;;;0.83;0.47;;;12.80;99.90;;;;;;10073216;29;20240;-92
2022/10/19 12:29:05;;;;;;;2.23;0.53;;;12.90;99.90;;;;;;10057723;29;20667;-93
2022/10/19 12:34:48;;;;;;;1.90;0.30;;;12.60;99.90;;;;;;10057000;29;20713;-92
2022/10/19 12:40:36;;;;;;;1.50;0.63;;;12.30;99.90;;;;;;10089434;29;20241;-93
2022/10/19 12:45:59;;;;;;;0.70;0.50;;;12.30;99.90;;;;;;10102930;29;20675;-94
2022/10/19 12:51:05;;;;;;;0.63;0.40;;;12.10;99.90;;;;;;10081462;29;20745;-94
2022/10/19 12:56:08;;;;;;;0.30;0.30;;;12.00;99.90;;;;;;10053598;29;20368;-92
2022/10/19 13:01:14;;;;;;;2.33;0.40;;;11.70;99.90;;;;;;10068008;29;20209;-94
2022/10/19 13:06:28;;;;;;;2.17;0.67;;;11.60;99.90;;;;;;10055853;29;20262;-94
2022/10/19 13:11:31;;;;;;;4.63;0.80;;;12.00;99.90;;;;;;10088896;29;20308;-93
2022/10/19 13:16:39;;;;;;;1.23;0.50;;;12.60;99.90;;;;;;10097142;29;20250;-93
2022/10/19 13:21:59;;;;;;;0.50;0.30;;;13.40;99.90;;;;;;10075801;29;20291;-93
2022/10/19 13:27:02;;;;;;;1.10;0.60;;;14.10;99.90;;;;;;10062810;29;20300;-93
2022/10/19 13:32:30;;;;;;;0.40;0.30;;;13.80;99.90;;;;;;10090110;23;20298;-84
2022/10/19 13:37:34;;;;;;;3.87;0.63;;;13.10;99.90;;;;;;10094127;29;20687;-85
2022/10/19 13:42:37;;;;;;;3.37;0.43;;;12.90;99.90;;;;;;10068200;29;20274;-85
2022/10/19 13:47:46;;;;;;;1.17;0.30;;;12.60;99.90;;;;;;10069237;29;20242;-85
2022/10/19 13:53:04;;;;;;;0.47;0.40;;;12.60;99.90;;;;;;10073233;29;20316;-81
2022/10/19 13:58:52;;;;;;;1.87;0.30;;;12.90;99.90;;;;;;10068466;29;20618;-90
2022/10/19 14:04:45;;;;;;;1.73;0.80;;;12.90;99.90;;;;;;10094793;29;20299;-84
2022/10/19 14:10:07;;;;;;;1.33;0.43;;;13.20;99.90;;;;;;9926192;29;20320;-84
2022/10/19 14:15:20;;;;;;;0.80;0.30;;;13.00;99.90;;;;;;9919576;29;20288;-85
2022/10/19 14:20:34;;;;;;;3.90;0.43;;;13.50;99.90;;;;;;9922428;29;20247;-85
2022/10/19 14:25:37;;;;;;;2.93;0.67;;;13.50;99.90;;;;;;9920949;29;20702;-84
2022/10/19 14:30:40;;;;;;;1.90;0.40;;;13.30;99.90;;;;;;9921183;29;20280;-83
2022/10/19 14:35:48;;;;;;;3.50;0.50;;;13.00;99.90;;;;;;9934140;29;20274;-83
2022/10/19 14:40:51;;;;;;;2.47;0.50;;;13.50;99.90;;;;;;9914348;29;20237;-82
2022/10/19 14:46:08;;;;;;;1.47;0.60;;;12.60;99.90;;;;;;10078980;29;20260;-83
2022/10/19 14:51:25;;;;;;;4.60;0.50;;;12.40;99.90;;;;;;10078372;29;20698;-83
2022/10/19 14:56:31;;;;;;;0.77;0.60;;;12.10;99.90;;;;;;10077968;29;20244;-83
2022/10/19 15:01:34;;;;;;;1.50;0.80;;;11.70;99.90;;;;;;10078559;29;20249;-84
2022/10/19 15:06:41;;;;;;;0.87;0.73;;;11.30;99.90;;;;;;10077887;29;20244;-83
2022/10/19 15:11:48;;;;;;;0.67;0.50;;;11.10;99.90;;;;;;10094879;29;20312;-83
2022/10/19 15:16:54;;;;;;;3.13;1.23;;;10.80;99.90;;;;;;10093898;29;20248;-83
2022/10/19 15:22:20;;;;;;;1.63;0.73;;;10.70;99.90;;;;;;10088510;29;20241;-85
2022/10/19 15:27:29;;;;;;;1.53;0.80;;;10.40;99.90;;;;;;9723856;29;10000560;-83
2022/10/19 15:32:35;;;;;;;4.40;1.93;;;10.30;99.90;;;;;;10090639;29;20269;-83
2022/10/19 15:37:42;;;;;;;9.50;2.43;;;10.10;99.90;;;;;;10072905;29;20244;-84
2022/10/19 15:42:47;;;;;;;8.17;4.10;;;10.00;99.90;;;;;;10089502;29;20682;-84
2022/10/19 15:48:09;;;;;;;4.83;2.90;;;9.90;99.90;;;;;;10072236;29;20316;-84
2022/10/19 15:53:12;;;;;;;4.23;2.60;;;9.70;99.90;;;;;;10072792;29;20786;-84
2022/10/19 15:58:14;;;;;;;5.87;2.50;;;9.60;99.90;;;;;;10070412;29;20236;-85
2022/10/19 16:03:17;;;;;;;10.23;4.67;;;9.30;99.90;;;;;;10088970;29;20257;-85
2022/10/19 16:08:19;;;;;;;6.73;2.83;;;9.20;99.90;;;;;;10072208;29;20670;-85
2022/10/19 16:13:21;;;;;;;4.20;2.67;;;9.00;99.90;;;;;;10072949;29;20674;-83
2022/10/19 16:18:24;;;;;;;3.43;1.73;;;8.80;99.90;;;;;;10087377;29;20303;-84
2022/10/19 16:23:27;;;;;;;3.10;1.80;;;8.60;99.90;;;;;;10082541;29;20297;-84
2022/10/19 16:28:30;;;;;;;2.90;2.30;;;;;;;;;;10071546;29;20248;-83
2022/10/19 16:33:32;;;;;;;2.93;1.90;;;8.30;99.90;;;;;;10090265;29;20260;-83
2022/10/19 16:38:35;;;;;;;6.33;2.93;;;8.20;99.90;;;;;;10062010;29;20283;-84
2022/10/19 16:43:38;;;;;;;6.87;2.60;;;7.90;99.90;;;;;;10088301;29;20245;-83
2022/10/19 16:48:43;;;;;;;3.43;2.03;;;8.10;99.90;;;;;;10088556;29;20240;-84
2022/10/19 16:53:50;;;;;;;1.57;1.17;;;8.10;99.90;;;;;;10070464;29;20268;-85
2022/10/19 16:58:58;;;;;;;1.57;1.27;;;8.00;99.90;;;;;;10089689;29;20645;-86
2022/10/19 17:04:00;;;;;;;2.87;1.40;;;7.80;99.90;;;;;;10081901;29;20241;-82
2022/10/19 17:09:04;;;;;;;6.87;1.13;;;7.70;99.90;;;;;;10098354;29;20636;-82
2022/10/19 17:14:26;;;;;;;3.90;2.63;;;7.50;99.90;;;;;;10072699;29;20319;-82
2022/10/19 17:19:29;;;;;;;9.33;5.00;;;7.10;99.90;;;;;;10071679;29;20236;-81
2022/10/19 17:24:32;;;;;;;12.70;6.47;;;6.80;99.90;;;;;;10084032;29;20236;-83
2022/10/19 17:29:34;;;;;;;23.10;7.40;;;6.70;99.90;;;;;;10089711;29;20268;-82
2022/10/19 17:34:37;;;;;;;15.10;7.80;;;6.20;99.90;;;;;;10102470;29;20249;-84
2022/10/19 17:39:39;;;;;;;22.57;11.73;;;6.10;99.90;;;;;;10099726;29;20237;-84
2022/10/19 17:44:42;;;;;;;109.10;41.47;;;5.90;99.90;;;;;;10088627;29;20237;-82
2022/10/19 17:49:44;;;;;;;105.80;43.27;;;6.30;99.90;;;;;;10111804;29;20300;-83
2022/10/19 17:54:46;;;;;;;15.37;9.77;;;6.40;99.90;;;;;;10074228;29;20324;-83
2022/10/19 18:00:09;;;;;;;26.37;13.13;;;6.00;99.90;;;;;;10099476;29;20261;-83
2022/10/19 18:05:14;;;;;;;45.33;22.53;;;5.90;99.90;;;;;;10102073;29;20240;-83
2022/10/19 18:10:17;;;;;;;37.67;19.10;;;5.90;99.90;;;;;;10097063;29;20600;-83
2022/10/19 18:15:19;;;;;;;35.23;18.30;;;5.80;99.90;;;;;;10095380;29;20241;-83
2022/10/19 18:20:21;;;;;;;28.00;16.00;;;5.20;99.90;;;;;;10084896;29;20209;-83
2022/10/19 18:25:24;;;;;;;18.73;10.43;;;4.80;99.90;;;;;;10093784;29;20300;-83
2022/10/19 18:30:47;;;;;;;31.43;15.87;;;;;;;;;;10086899;29;20297;-82
2022/10/19 18:35:49;;;;;;;26.53;15.00;;;4.70;99.90;;;;;;10093419;29;20654;-83
2022/10/19 18:40:52;;;;;;;33.90;15.87;;;4.50;99.90;;;;;;10097485;29;20668;-85
2022/10/19 18:45:57;;;;;;;26.93;16.73;;;4.20;99.90;;;;;;10130979;29;20235;-84
2022/10/19 18:51:03;;;;;;;28.33;16.27;;;4.20;99.90;;;;;;10095065;29;20295;-82
2022/10/19 18:56:07;;;;;;;24.57;13.93;;;4.10;99.90;;;;;;10078777;29;20285;-82
2022/10/19 19:01:15;;;;;;;32.03;15.70;;;4.00;99.90;;;;;;10092654;29;20300;-83
2022/10/19 19:06:23;;;;;;;22.20;10.73;;;3.90;99.90;;;;;;10094451;29;20620;-82
2022/10/19 19:11:30;;;;;;;21.83;9.43;;;;;;;;;;10074642;29;20269;-83
2022/10/19 19:16:39;;;;;;;10.47;6.97;;;3.90;99.90;;;;;;10049859;29;20260;-82
2022/10/19 19:21:43;;;;;;;13.37;7.10;;;3.80;99.90;;;;;;10075754;29;20253;-86
2022/10/19 19:26:51;;;;;;;11.50;5.43;;;3.90;99.90;;;;;;10084901;29;20240;-84
2022/10/19 19:31:54;;;;;;;10.17;5.57;;;3.70;99.90;;;;;;10078117;29;22025;-83
2022/10/19 19:36:56;;;;;;;9.40;5.17;;;3.60;99.90;;;;;;10076971;29;20269;-84
2022/10/19 19:41:59;;;;;;;10.77;5.90;;;3.70;99.90;;;;;;10092128;29;20952;-86
2022/10/19 19:47:01;;;;;;;17.10;8.30;;;3.40;99.90;;;;;;10042255;29;20648;-84
2022/10/19 19:52:04;;;;;;;17.77;9.33;;;3.20;99.90;;;;;;10092141;29;20244;-84
2022/10/19 19:57:06;;;;;;;20.47;10.40;;;3.20;99.90;;;;;;10073747;29;20239;-85
2022/10/19 20:02:10;;;;;;;17.77;9.67;;;3.30;99.90;;;;;;10073229;29;20252;-86
2022/10/19 20:07:12;;;;;;;11.53;7.37;;;3.30;99.90;;;;;;10092173;29;20306;-86
2022/10/19 20:12:16;;;;;;;15.87;7.33;;;;;;;;;;10089782;29;20308;-86
2022/10/19 20:17:22;;;;;;;13.70;7.67;;;3.00;99.90;;;;;;10060996;29;20212;-85
2022/10/19 20:22:25;;;;;;;14.43;6.47;;;2.80;99.90;;;;;;10073424;29;20694;-86
2022/10/19 20:27:27;;;;;;;12.33;7.23;;;2.80;99.90;;;;;;10090444;29;20295;-87
2022/10/19 20:32:30;;;;;;;16.50;8.37;;;2.80;99.90;;;;;;10073903;29;20260;-85
2022/10/19 20:37:33;;;;;;;17.37;8.50;;;2.60;99.90;;;;;;10075343;29;20260;-88
2022/10/19 20:42:35;;;;;;;16.80;9.37;;;2.70;99.90;;;;;;10058232;29;20247;-87
2022/10/19 20:47:39;;;;;;;24.37;13.67;;;2.70;99.90;;;;;;10071385;29;20298;-85
2022/10/19 20:52:41;;;;;;;18.00;10.50;;;2.70;99.90;;;;;;10089267;29;20314;-81
2022/10/19 20:57:44;;;;;;;41.03;21.63;;;2.80;99.90;;;;;;10089592;29;20299;-85
2022/10/19 21:02:46;;;;;;;72.70;36.33;;;2.70;99.90;;;;;;10088552;29;20248;-82
2022/10/19 21:07:49;;;;;;;35.90;19.13;;;2.60;99.90;;;;;;10087673;29;20627;-83
2022/10/19 21:12:51;;;;;;;25.73;14.47;;;;;;;;;;10086891;29;20285;-82
2022/10/19 21:17:54;;;;;;;37.67;20.60;;;2.40;99.90;;;;;;10087024;29;20244;-82
2022/10/19 21:22:57;;;;;;;22.77;13.87;;;2.10;99.90;;;;;;10069877;29;20236;-85
2022/10/19 21:27:59;;;;;;;23.03;13.97;;;2.30;99.90;;;;;;10070575;29;20247;-84
2022/10/19 21:33:02;;;;;;;27.30;14.93;;;2.20;99.90;;;;;;10072204;29;20271;-83
2022/10/19 21:38:04;;;;;;;27.23;16.80;;;2.00;99.90;;;;;;10081869;29;20285;-83
2022/10/19 21:43:09;;;;;;;30.90;17.63;;;1.90;99.90;;;;;;10096682;29;20244;-82
2022/10/19 21:48:12;;;;;;;31.73;16.47;;;1.90;99.90;;;;;;10081048;29;20248;-84
2022/10/19 21:53:19;;;;;;;31.77;16.53;;;1.90;99.90;;;;;;10098013;29;20248;-83
2022/10/19 21:58:21;;;;;;;31.13;15.70;;;1.80;99.90;;;;;;10093689;29;20654;-82
2022/10/19 22:03:24;;;;;;;28.53;16.43;;;1.70;99.90;;;;;;10080557;29;20215;-82
2022/10/19 22:08:26;;;;;;;28.27;15.37;;;1.60;99.90;;;;;;10080721;29;20213;-83
2022/10/19 22:13:29;;;;;;;29.60;15.73;;;1.60;99.90;;;;;;10093938;29;20660;-82
2022/10/19 22:18:32;;;;;;;28.37;13.87;;;1.50;99.90;;;;;;10078844;29;20275;-82
2022/10/19 22:23:35;;;;;;;23.17;12.33;;;1.50;99.90;;;;;;10080058;29;20644;-82
2022/10/19 22:28:37;;;;;;;23.50;12.00;;;1.50;99.90;;;;;;10079686;29;20309;-82
2022/10/19 22:33:40;;;;;;;33.33;12.40;;;1.40;99.90;;;;;;10094180;29;20251;-83
2022/10/19 22:38:42;;;;;;;20.03;12.63;;;1.40;99.90;;;;;;10094620;29;20243;-83
2022/10/19 22:43:45;;;;;;;29.40;14.20;;;1.20;99.90;;;;;;10095546;29;20642;-83
2022/10/19 22:48:48;;;;;;;21.63;14.23;;;1.30;99.90;;;;;;10079750;29;20265;-82
2022/10/19 22:53:50;;;;;;;27.13;14.80;;;1.20;99.90;;;;;;10094859;29;20302;-82
2022/10/19 22:58:57;;;;;;;26.17;14.97;;;1.20;99.90;;;;;;10092637;29;20250;-83
2022/10/19 23:03:59;;;;;;;24.10;15.23;;;1.00;99.90;;;;;;10094460;29;20294;-82
2022/10/19 23:09:03;;;;;;;26.60;13.60;;;1.00;99.90;;;;;;10078287;29;20223;-82
2022/10/19 23:14:05;;;;;;;26.43;14.17;;;1.10;99.90;;;;;;10094079;29;20263;-82
2022/10/19 23:19:08;;;;;;;26.57;12.93;;;;;;;;;;10092462;29;20692;-82
2022/10/19 23:24:11;;;;;;;21.70;12.27;;;0.90;99.90;;;;;;10077456;29;20297;-82
2022/10/19 23:29:14;;;;;;;23.47;14.10;;;0.80;99.90;;;;;;10077177;29;20302;-82
2022/10/19 23:34:16;;;;;;;20.97;12.57;;;0.80;99.90;;;;;;10061716;29;20418;-82
2022/10/19 23:39:19;;;;;;;23.77;13.77;;;0.90;99.90;;;;;;10074630;29;20280;-82
2022/10/19 23:44:21;;;;;;;24.40;12.93;;;0.90;99.90;;;;;;10093608;29;20250;-82
2022/10/19 23:49:24;;;;;;;18.10;11.60;;;0.70;99.90;;;;;;10092187;29;20318;-82
2022/10/19 23:54:26;;;;;;;18.10;10.93;;;0.70;99.90;;;;;;10060060;29;20269;-82
2022/10/19 23:59:29;;;;;;;23.03;11.87;;;0.60;99.90;;;;;;10092680;29;20246;-82
